sensor_id;sensor_type;location;lat;lon;timestamp;P1;durP1;ratioP1;P2;durP2;ratioP2
61458;SDS011;47324;48.760;9.156;2023-09-08T00:02:34;6.05;;;4.40;;
61458;SDS011;47324;48.760;9.156;2023-09-08T00:05:19;8.32;;;5.03;;
61458;SDS011;47324;48.760;9.156;2023-09-08T00:08:03;6.75;;;4.00;;
61458;SDS011;47324;48.760;9.156;2023-09-08T00:10:47;7.40;;;4.75;;
61458;SDS011;47324;48.760;9.156;2023-09-08T00:13:32;8.32;;;5.45;;
61458;SDS011;47324;48.760;9.156;2023-09-08T00:16:17;7.57;;;5.68;;
61458;SDS011;47324;48.760;9.156;2023-09-08T00:19:01;7.13;;;4.75;;
61458;SDS011;47324;48.760;9.156;2023-09-08T00:21:46;8.77;;;5.68;;
61458;SDS011;47324;48.760;9.156;2023-09-08T00:24:31;9.90;;;5.22;;
61458;SDS011;47324;48.760;9.156;2023-09-08T00:27:15;8.05;;;4.90;;
61458;SDS011;47324;48.760;9.156;2023-09-08T00:29:59;7.47;;;4.90;;
61458;SDS011;47324;48.760;9.156;2023-09-08T00:32:46;8.57;;;5.65;;
61458;SDS011;47324;48.760;9.156;2023-09-08T00:35:30;9.18;;;5.32;;
61458;SDS011;47324;48.760;9.156;2023-09-08T00:38:15;7.53;;;4.82;;
61458;SDS011;47324;48.760;9.156;2023-09-08T00:40:59;8.32;;;5.30;;
61458;SDS011;47324;48.760;9.156;2023-09-08T00:43:44;7.38;;;4.32;;
61458;SDS011;47324;48.760;9.156;2023-09-08T00:46:28;7.90;;;5.13;;
61458;SDS011;47324;48.760;9.156;2023-09-08T00:49:14;9.07;;;5.55;;
61458;SDS011;47324;48.760;9.156;2023-09-08T00:51:58;8.10;;;4.40;;
61458;SDS011;47324;48.760;9.156;2023-09-08T00:54:43;9.98;;;5.18;;
61458;SDS011;47324;48.760;9.156;2023-09-08T00:57:27;9.13;;;5.47;;
61458;SDS011;47324;48.760;9.156;2023-09-08T01:00:12;9.32;;;4.50;;
61458;SDS011;47324;48.760;9.156;2023-09-08T01:02:56;12.32;;;5.38;;
61458;SDS011;47324;48.760;9.156;2023-09-08T01:05:40;8.85;;;5.00;;
61458;SDS011;47324;48.760;9.156;2023-09-08T01:08:25;8.27;;;5.43;;
61458;SDS011;47324;48.760;9.156;2023-09-08T01:11:10;7.93;;;5.20;;
61458;SDS011;47324;48.760;9.156;2023-09-08T01:13:55;7.90;;;4.68;;
61458;SDS011;47324;48.760;9.156;2023-09-08T01:16:39;9.25;;;4.90;;
61458;SDS011;47324;48.760;9.156;2023-09-08T01:19:26;10.93;;;6.88;;
61458;SDS011;47324;48.760;9.156;2023-09-08T01:25:19;9.43;;;5.68;;
61458;SDS011;47324;48.760;9.156;2023-09-08T01:28:05;7.95;;;5.78;;
61458;SDS011;47324;48.760;9.156;2023-09-08T01:30:50;10.57;;;5.20;;
61458;SDS011;47324;48.760;9.156;2023-09-08T01:33:35;7.82;;;4.40;;
61458;SDS011;47324;48.760;9.156;2023-09-08T01:36:20;7.75;;;4.93;;
61458;SDS011;47324;48.760;9.156;2023-09-08T01:39:04;9.15;;;5.28;;
61458;SDS011;47324;48.760;9.156;2023-09-08T01:41:48;8.48;;;5.30;;
61458;SDS011;47324;48.760;9.156;2023-09-08T01:44:32;9.07;;;5.07;;
61458;SDS011;47324;48.760;9.156;2023-09-08T01:47:17;8.32;;;5.07;;
61458;SDS011;47324;48.760;9.156;2023-09-08T01:50:01;7.03;;;5.22;;
61458;SDS011;47324;48.760;9.156;2023-09-08T01:52:45;7.78;;;4.85;;
61458;SDS011;47324;48.760;9.156;2023-09-08T01:55:30;7.13;;;4.70;;
61458;SDS011;47324;48.760;9.156;2023-09-08T01:58:14;7.30;;;4.25;;
61458;SDS011;47324;48.760;9.156;2023-09-08T02:00:58;8.02;;;5.00;;
61458;SDS011;47324;48.760;9.156;2023-09-08T02:03:49;9.40;;;5.53;;
61458;SDS011;47324;48.760;9.156;2023-09-08T02:06:34;8.02;;;4.75;;
61458;SDS011;47324;48.760;9.156;2023-09-08T02:09:18;8.77;;;5.20;;
61458;SDS011;47324;48.760;9.156;2023-09-08T02:12:03;7.55;;;5.00;;
61458;SDS011;47324;48.760;9.156;2023-09-08T02:14:47;7.80;;;4.93;;
61458;SDS011;47324;48.760;9.156;2023-09-08T02:17:31;7.40;;;5.20;;
61458;SDS011;47324;48.760;9.156;2023-09-08T02:20:16;7.03;;;4.35;;
61458;SDS011;47324;48.760;9.156;2023-09-08T02:23:04;8.35;;;5.05;;
61458;SDS011;47324;48.760;9.156;2023-09-08T02:25:48;6.57;;;4.60;;
61458;SDS011;47324;48.760;9.156;2023-09-08T02:28:32;7.55;;;5.25;;
61458;SDS011;47324;48.760;9.156;2023-09-08T02:31:16;7.40;;;4.72;;
61458;SDS011;47324;48.760;9.156;2023-09-08T02:34:01;7.63;;;4.57;;
61458;SDS011;47324;48.760;9.156;2023-09-08T02:36:45;8.57;;;4.85;;
61458;SDS011;47324;48.760;9.156;2023-09-08T02:39:32;8.07;;;5.28;;
61458;SDS011;47324;48.760;9.156;2023-09-08T02:42:16;7.78;;;5.32;;
61458;SDS011;47324;48.760;9.156;2023-09-08T02:45:00;8.73;;;5.10;;
61458;SDS011;47324;48.760;9.156;2023-09-08T02:47:45;7.97;;;4.47;;
61458;SDS011;47324;48.760;9.156;2023-09-08T02:50:29;7.43;;;4.90;;
61458;SDS011;47324;48.760;9.156;2023-09-08T02:53:13;7.22;;;4.38;;
61458;SDS011;47324;48.760;9.156;2023-09-08T02:55:58;7.95;;;5.25;;
61458;SDS011;47324;48.760;9.156;2023-09-08T02:58:42;7.18;;;4.90;;
61458;SDS011;47324;48.760;9.156;2023-09-08T03:01:28;8.13;;;5.00;;
61458;SDS011;47324;48.760;9.156;2023-09-08T03:04:12;9.73;;;5.75;;
61458;SDS011;47324;48.760;9.156;2023-09-08T03:06:56;9.93;;;5.40;;
61458;SDS011;47324;48.760;9.156;2023-09-08T03:09:41;9.25;;;5.63;;
61458;SDS011;47324;48.760;9.156;2023-09-08T03:12:25;8.57;;;5.00;;
61458;SDS011;47324;48.760;9.156;2023-09-08T03:15:10;9.35;;;5.30;;
61458;SDS011;47324;48.760;9.156;2023-09-08T03:17:54;6.72;;;4.93;;
61458;SDS011;47324;48.760;9.156;2023-09-08T03:20:39;7.05;;;4.60;;
61458;SDS011;47324;48.760;9.156;2023-09-08T03:23:24;8.90;;;4.88;;
61458;SDS011;47324;48.760;9.156;2023-09-08T03:26:09;10.45;;;4.90;;
61458;SDS011;47324;48.760;9.156;2023-09-08T03:28:54;9.82;;;5.38;;
61458;SDS011;47324;48.760;9.156;2023-09-08T03:31:38;7.63;;;4.75;;
61458;SDS011;47324;48.760;9.156;2023-09-08T03:34:23;8.02;;;4.72;;
61458;SDS011;47324;48.760;9.156;2023-09-08T03:37:07;7.88;;;4.82;;
61458;SDS011;47324;48.760;9.156;2023-09-08T03:39:52;8.63;;;5.10;;
61458;SDS011;47324;48.760;9.156;2023-09-08T03:42:37;8.77;;;4.80;;
61458;SDS011;47324;48.760;9.156;2023-09-08T03:45:21;11.88;;;4.80;;
61458;SDS011;47324;48.760;9.156;2023-09-08T03:48:05;8.98;;;5.32;;
61458;SDS011;47324;48.760;9.156;2023-09-08T03:50:50;8.00;;;4.93;;
61458;SDS011;47324;48.760;9.156;2023-09-08T03:53:34;6.65;;;4.63;;
61458;SDS011;47324;48.760;9.156;2023-09-08T03:56:18;11.00;;;5.30;;
61458;SDS011;47324;48.760;9.156;2023-09-08T03:59:04;7.82;;;4.97;;
61458;SDS011;47324;48.760;9.156;2023-09-08T04:01:48;8.90;;;5.35;;
61458;SDS011;47324;48.760;9.156;2023-09-08T04:04:32;9.27;;;5.43;;
61458;SDS011;47324;48.760;9.156;2023-09-08T04:07:17;7.72;;;5.43;;
61458;SDS011;47324;48.760;9.156;2023-09-08T04:10:01;8.02;;;5.13;;
61458;SDS011;47324;48.760;9.156;2023-09-08T04:12:45;13.18;;;5.50;;
61458;SDS011;47324;48.760;9.156;2023-09-08T04:15:30;7.85;;;4.95;;
61458;SDS011;47324;48.760;9.156;2023-09-08T04:18:14;7.20;;;5.00;;
61458;SDS011;47324;48.760;9.156;2023-09-08T04:20:58;13.90;;;6.65;;
61458;SDS011;47324;48.760;9.156;2023-09-08T04:23:44;10.57;;;5.35;;
61458;SDS011;47324;48.760;9.156;2023-09-08T04:26:29;8.55;;;5.65;;
61458;SDS011;47324;48.760;9.156;2023-09-08T04:29:13;8.68;;;5.38;;
61458;SDS011;47324;48.760;9.156;2023-09-08T04:31:57;8.52;;;5.00;;
61458;SDS011;47324;48.760;9.156;2023-09-08T04:34:42;7.50;;;5.32;;
61458;SDS011;47324;48.760;9.156;2023-09-08T04:37:26;6.97;;;4.90;;
61458;SDS011;47324;48.760;9.156;2023-09-08T04:40:10;7.97;;;4.70;;
61458;SDS011;47324;48.760;9.156;2023-09-08T04:42:54;8.75;;;5.30;;
61458;SDS011;47324;48.760;9.156;2023-09-08T04:45:41;8.40;;;4.95;;
61458;SDS011;47324;48.760;9.156;2023-09-08T04:48:25;6.43;;;4.65;;
61458;SDS011;47324;48.760;9.156;2023-09-08T04:51:09;7.07;;;4.82;;
61458;SDS011;47324;48.760;9.156;2023-09-08T04:53:53;8.45;;;5.25;;
61458;SDS011;47324;48.760;9.156;2023-09-08T04:56:38;9.75;;;5.85;;
61458;SDS011;47324;48.760;9.156;2023-09-08T04:59:23;9.43;;;5.63;;
61458;SDS011;47324;48.760;9.156;2023-09-08T05:02:07;8.52;;;5.65;;
61458;SDS011;47324;48.760;9.156;2023-09-08T05:04:52;7.78;;;5.07;;
61458;SDS011;47324;48.760;9.156;2023-09-08T05:07:36;10.70;;;5.78;;
61458;SDS011;47324;48.760;9.156;2023-09-08T05:10:20;10.32;;;5.70;;
61458;SDS011;47324;48.760;9.156;2023-09-08T05:13:04;9.35;;;5.80;;
61458;SDS011;47324;48.760;9.156;2023-09-08T05:15:49;9.45;;;5.88;;
61458;SDS011;47324;48.760;9.156;2023-09-08T05:18:33;8.63;;;5.55;;
61458;SDS011;47324;48.760;9.156;2023-09-08T05:21:19;9.85;;;5.85;;
61458;SDS011;47324;48.760;9.156;2023-09-08T05:24:03;10.45;;;6.00;;
61458;SDS011;47324;48.760;9.156;2023-09-08T05:26:48;8.00;;;5.30;;
61458;SDS011;47324;48.760;9.156;2023-09-08T05:29:32;11.23;;;5.88;;
61458;SDS011;47324;48.760;9.156;2023-09-08T05:32:16;8.35;;;5.85;;
61458;SDS011;47324;48.760;9.156;2023-09-08T05:35:01;11.13;;;5.28;;
61458;SDS011;47324;48.760;9.156;2023-09-08T05:37:45;9.32;;;5.22;;
61458;SDS011;47324;48.760;9.156;2023-09-08T05:40:29;9.95;;;5.68;;
61458;SDS011;47324;48.760;9.156;2023-09-08T05:43:13;9.45;;;6.03;;
61458;SDS011;47324;48.760;9.156;2023-09-08T05:45:58;8.68;;;5.60;;
61458;SDS011;47324;48.760;9.156;2023-09-08T05:48:42;9.65;;;5.25;;
61458;SDS011;47324;48.760;9.156;2023-09-08T05:51:26;9.77;;;5.57;;
61458;SDS011;47324;48.760;9.156;2023-09-08T05:54:10;9.50;;;6.13;;
61458;SDS011;47324;48.760;9.156;2023-09-08T05:56:55;9.15;;;5.70;;
61458;SDS011;47324;48.760;9.156;2023-09-08T05:59:40;10.77;;;6.00;;
61458;SDS011;47324;48.760;9.156;2023-09-08T06:02:24;8.13;;;5.18;;
61458;SDS011;47324;48.760;9.156;2023-09-08T06:05:08;10.40;;;6.18;;
61458;SDS011;47324;48.760;9.156;2023-09-08T06:07:53;8.65;;;5.75;;
61458;SDS011;47324;48.760;9.156;2023-09-08T06:10:38;8.40;;;5.70;;
61458;SDS011;47324;48.760;9.156;2023-09-08T06:13:22;9.77;;;5.75;;
61458;SDS011;47324;48.760;9.156;2023-09-08T06:16:06;10.00;;;5.47;;
61458;SDS011;47324;48.760;9.156;2023-09-08T06:18:51;8.88;;;5.78;;
61458;SDS011;47324;48.760;9.156;2023-09-08T06:21:35;8.05;;;5.85;;
61458;SDS011;47324;48.760;9.156;2023-09-08T06:24:20;9.30;;;5.82;;
61458;SDS011;47324;48.760;9.156;2023-09-08T06:27:05;11.20;;;6.68;;
61458;SDS011;47324;48.760;9.156;2023-09-08T06:29:50;10.45;;;6.63;;
61458;SDS011;47324;48.760;9.156;2023-09-08T06:32:35;9.48;;;6.82;;
61458;SDS011;47324;48.760;9.156;2023-09-08T06:35:19;11.90;;;7.10;;
61458;SDS011;47324;48.760;9.156;2023-09-08T06:38:04;11.60;;;7.07;;
61458;SDS011;47324;48.760;9.156;2023-09-08T06:40:48;14.13;;;7.22;;
61458;SDS011;47324;48.760;9.156;2023-09-08T06:43:33;11.00;;;7.22;;
61458;SDS011;47324;48.760;9.156;2023-09-08T06:46:17;11.73;;;6.80;;
61458;SDS011;47324;48.760;9.156;2023-09-08T06:49:01;14.05;;;6.85;;
61458;SDS011;47324;48.760;9.156;2023-09-08T06:51:46;10.90;;;6.22;;
